createdAt,value
2018-02-10T00:01:26.402Z,-5.40
2018-02-10T00:03:53.109Z,-5.30
2018-02-10T00:06:20.150Z,-5.30
2018-02-10T00:08:46.942Z,-5.40
2018-02-10T00:11:13.528Z,-5.30
2018-02-10T00:13:40.895Z,-5.30
2018-02-10T00:16:07.792Z,-5.20
2018-02-10T00:18:34.354Z,-5.20
2018-02-10T00:21:01.885Z,-5.20
2018-02-10T00:23:28.607Z,-5.30
2018-02-10T00:25:55.924Z,-5.20
2018-02-10T00:28:24.523Z,-5.00
2018-02-10T00:30:51.223Z,-5.10
2018-02-10T00:33:17.790Z,-5.10
2018-02-10T00:35:44.408Z,-5.00
2018-02-10T00:38:11.626Z,-4.90
2018-02-10T00:40:38.240Z,-4.90
2018-02-10T00:43:05.462Z,-4.70
2018-02-10T00:45:32.462Z,-4.60
2018-02-10T00:47:59.917Z,-4.40
2018-02-10T00:50:28.566Z,-4.50
2018-02-10T00:52:55.214Z,-4.30
2018-02-10T00:55:21.711Z,-4.30
2018-02-10T00:57:48.261Z,-4.30
2018-02-10T01:00:15.724Z,-4.50
2018-02-10T01:02:43.101Z,-4.30
2018-02-10T01:05:10.395Z,-4.20
2018-02-10T01:07:37.087Z,-4.10
2018-02-10T01:10:04.365Z,-4.10
2018-02-10T01:12:30.899Z,-4.10
2018-02-10T01:14:58.499Z,-4.10
2018-02-10T01:17:25.071Z,-4.00
2018-02-10T01:19:51.567Z,-4.10
2018-02-10T01:22:18.516Z,-3.60
2018-02-10T01:24:45.748Z,-3.80
2018-02-10T01:27:13.138Z,-3.90
2018-02-10T01:29:40.008Z,-3.90
2018-02-10T01:32:06.551Z,-3.90
2018-02-10T01:34:33.950Z,-3.90
2018-02-10T01:37:01.464Z,-4.00
2018-02-10T01:39:29.029Z,-3.90
2018-02-10T01:41:56.529Z,-3.80
2018-02-10T01:44:24.173Z,-3.80
2018-02-10T01:46:50.965Z,-3.80
2018-02-10T01:49:18.869Z,-3.70
2018-02-10T01:51:45.700Z,-3.70
2018-02-10T01:54:12.284Z,-3.70
2018-02-10T01:56:39.204Z,-3.80
2018-02-10T01:59:05.884Z,-3.70
2018-02-10T02:01:32.404Z,-3.70
2018-02-10T02:03:58.964Z,-3.70
2018-02-10T02:06:26.137Z,-4.00
2018-02-10T02:08:52.684Z,-3.60
2018-02-10T02:11:19.927Z,-3.60
2018-02-10T02:13:47.075Z,-3.60
2018-02-10T02:16:15.116Z,-3.60
2018-02-10T02:18:41.611Z,-3.50
2018-02-10T02:21:09.044Z,-3.50
2018-02-10T02:23:36.083Z,-3.50
2018-02-10T02:26:02.750Z,-3.00
2018-02-10T02:28:29.434Z,-3.20
2018-02-10T02:30:55.971Z,-3.40
2018-02-10T02:33:23.938Z,-3.40
2018-02-10T02:35:50.782Z,-3.30
2018-02-10T02:38:17.405Z,-3.30
2018-02-10T02:40:43.899Z,-3.40
2018-02-10T02:43:10.602Z,-3.40
2018-02-10T02:45:37.251Z,-3.20
2018-02-10T02:48:03.787Z,-3.00
2018-02-10T02:50:32.451Z,-3.10
2018-02-10T02:52:58.919Z,-3.10
2018-02-10T02:55:26.129Z,-3.20
2018-02-10T02:57:52.742Z,-3.10
2018-02-10T03:00:19.221Z,-3.10
2018-02-10T03:02:46.082Z,-3.20
2018-02-10T03:05:12.829Z,-3.20
2018-02-10T03:07:40.062Z,-3.30
2018-02-10T03:10:06.775Z,-3.10
2018-02-10T03:12:34.736Z,-3.20
2018-02-10T03:15:01.230Z,-3.10
2018-02-10T03:17:28.061Z,-3.40
2018-02-10T03:19:55.769Z,-3.20
2018-02-10T03:22:22.231Z,-3.10
2018-02-10T03:24:48.721Z,-3.10
2018-02-10T03:27:15.963Z,-3.10
2018-02-10T03:29:43.246Z,-3.10
2018-02-10T03:32:09.782Z,-3.00
2018-02-10T03:34:36.339Z,-3.00
2018-02-10T03:37:03.060Z,-3.00
2018-02-10T03:39:29.614Z,-3.00
2018-02-10T03:41:56.302Z,-3.00
2018-02-10T03:44:22.866Z,-3.00
2018-02-10T03:46:49.471Z,-3.00
2018-02-10T03:49:16.774Z,-2.90
2018-02-10T03:51:44.601Z,-2.90
2018-02-10T03:54:11.173Z,-2.80
2018-02-10T03:56:37.747Z,-2.80
2018-02-10T03:59:04.330Z,-2.80
2018-02-10T04:01:30.958Z,-2.80
2018-02-10T04:03:58.455Z,-2.80
2018-02-10T04:06:25.767Z,-2.80
2018-02-10T04:08:52.381Z,-3.20
2018-02-10T04:11:20.243Z,-2.80
2018-02-10T04:13:46.859Z,-2.80
2018-02-10T04:16:14.132Z,-2.80
2018-02-10T04:18:41.542Z,-2.80
2018-02-10T04:21:08.074Z,-2.80
2018-02-10T04:23:34.667Z,-2.80
2018-02-10T04:26:01.669Z,-2.80
2018-02-10T04:30:56.598Z,-2.70
2018-02-10T04:33:23.698Z,-2.60
2018-02-10T04:35:50.191Z,-2.80
2018-02-10T04:38:17.510Z,-2.60
2018-02-10T04:43:12.421Z,-2.90
2018-02-10T04:45:52.142Z,-2.60
2018-02-10T04:48:24.875Z,-2.60
2018-02-10T04:50:51.418Z,-2.50
2018-02-10T04:53:18.563Z,-2.60
2018-02-10T04:55:45.833Z,-2.50
2018-02-10T04:58:12.489Z,-2.60
2018-02-10T05:00:39.327Z,-2.60
2018-02-10T05:03:05.966Z,-2.40
2018-02-10T05:05:32.523Z,-2.20
2018-02-10T05:08:00.272Z,-2.50
2018-02-10T05:10:26.816Z,-2.40
2018-02-10T05:12:53.922Z,-2.60
2018-02-10T05:15:20.636Z,-2.60
2018-02-10T05:17:47.196Z,-2.50
2018-02-10T05:20:14.080Z,-2.50
2018-02-10T05:22:40.974Z,-2.70
2018-02-10T05:25:07.514Z,-2.50
2018-02-10T05:27:34.345Z,-2.50
2018-02-10T05:30:01.676Z,-2.50
2018-02-10T05:32:29.188Z,-2.50
2018-02-10T05:34:56.568Z,-2.50
2018-02-10T05:37:23.606Z,-2.50
2018-02-10T05:39:50.131Z,-2.50
2018-02-10T05:42:16.714Z,-2.50
2018-02-10T05:44:43.244Z,-2.60
2018-02-10T05:47:09.775Z,-2.50
2018-02-10T05:49:36.332Z,-2.40
2018-02-10T05:52:03.562Z,-2.40
2018-02-10T05:54:30.130Z,-2.50
2018-02-10T05:56:56.760Z,-2.70
2018-02-10T05:59:23.492Z,-2.50
2018-02-10T06:01:50.049Z,-2.50
2018-02-10T06:04:17.354Z,-2.50
2018-02-10T06:06:44.290Z,-2.60
2018-02-10T06:09:12.190Z,-2.80
2018-02-10T06:11:38.768Z,-2.60
2018-02-10T06:14:05.464Z,-2.70
2018-02-10T06:16:31.997Z,-2.70
2018-02-10T06:18:58.616Z,-2.80
2018-02-10T06:21:25.950Z,-2.90
2018-02-10T06:23:53.165Z,-2.90
2018-02-10T06:26:20.044Z,-3.10
2018-02-10T06:28:46.839Z,-3.00
2018-02-10T06:31:14.084Z,-3.30
2018-02-10T06:33:40.613Z,-3.20
2018-02-10T06:36:07.242Z,-3.50
2018-02-10T06:38:33.720Z,-3.10
2018-02-10T06:41:01.372Z,-3.00
2018-02-10T06:43:28.832Z,-2.90
2018-02-10T06:45:56.100Z,-2.90
2018-02-10T06:48:22.533Z,-2.80
2018-02-10T06:50:49.270Z,-2.60
2018-02-10T06:53:16.533Z,-2.70
2018-02-10T06:55:43.039Z,-2.70
2018-02-10T06:58:09.715Z,-2.80
2018-02-10T07:00:36.246Z,-2.90
2018-02-10T07:03:02.828Z,-2.90
2018-02-10T07:05:29.886Z,-3.00
2018-02-10T07:07:56.415Z,-2.80
2018-02-10T07:10:22.959Z,-2.90
2018-02-10T07:12:49.717Z,-2.90
2018-02-10T07:15:16.241Z,-3.00
2018-02-10T07:17:43.677Z,-2.90
2018-02-10T07:20:11.103Z,-2.90
2018-02-10T07:22:38.327Z,-2.80
2018-02-10T07:25:05.606Z,-2.80
2018-02-10T07:27:32.541Z,-2.60
2018-02-10T07:29:59.518Z,-2.60
2018-02-10T07:32:25.994Z,-2.60
2018-02-10T07:34:52.816Z,-1.80
2018-02-10T07:37:19.435Z,-2.30
2018-02-10T07:39:45.892Z,-2.10
2018-02-10T07:42:12.490Z,-2.20
2018-02-10T07:47:08.087Z,-2.10
2018-02-10T07:49:35.527Z,-2.00
2018-02-10T07:52:02.825Z,-2.10
2018-02-10T07:54:29.419Z,-2.00
2018-02-10T07:56:56.579Z,-2.00
2018-02-10T07:59:24.170Z,-2.10
2018-02-10T08:01:50.693Z,-2.00
2018-02-10T08:04:17.768Z,-1.80
2018-02-10T08:06:45.932Z,-1.80
2018-02-10T08:09:12.488Z,-1.80
2018-02-10T08:11:39.703Z,-1.70
2018-02-10T08:14:06.217Z,-1.70
2018-02-10T08:16:33.665Z,-1.60
2018-02-10T08:19:00.539Z,-1.20
2018-02-10T08:21:28.570Z,-1.60
2018-02-10T08:23:55.212Z,-1.40
2018-02-10T08:26:22.497Z,-1.40
2018-02-10T08:28:49.008Z,-1.30
2018-02-10T08:31:15.640Z,-1.30
2018-02-10T08:33:43.261Z,-1.20
2018-02-10T08:36:10.884Z,-1.30
2018-02-10T08:38:37.572Z,-1.10
2018-02-10T08:41:04.146Z,-1.20
2018-02-10T08:43:30.679Z,-1.10
2018-02-10T08:45:57.988Z,-1.10
2018-02-10T08:50:53.676Z,-1.00
2018-02-10T08:53:20.261Z,-0.90
2018-02-10T08:55:46.832Z,-1.00
2018-02-10T08:58:14.396Z,-0.90
2018-02-10T09:00:42.069Z,-0.90
2018-02-10T09:03:09.940Z,-0.90
2018-02-10T09:05:37.232Z,-0.80
2018-02-10T09:08:04.201Z,-0.80
2018-02-10T09:10:30.835Z,-0.80
2018-02-10T09:12:57.721Z,-0.60
2018-02-10T09:15:24.218Z,-0.40
2018-02-10T09:17:50.884Z,-0.60
2018-02-10T09:20:18.876Z,-0.50
2018-02-10T09:22:46.895Z,-0.50
2018-02-10T09:25:15.356Z,-0.40
2018-02-10T09:27:42.354Z,-0.20
2018-02-10T09:30:09.940Z,-0.10
2018-02-10T09:32:37.406Z,0.00
2018-02-10T09:37:32.150Z,0.20
2018-02-10T09:40:00.158Z,0.00
2018-02-10T09:42:27.601Z,0.10
2018-02-10T09:44:55.181Z,0.20
2018-02-10T09:47:22.240Z,0.10
2018-02-10T09:49:48.952Z,0.30
2018-02-10T09:52:15.475Z,0.50
2018-02-10T09:57:10.915Z,0.80
2018-02-10T09:59:38.685Z,0.50
2018-02-10T10:02:06.087Z,0.70
2018-02-10T10:04:33.426Z,0.80
2018-02-10T10:06:59.974Z,0.90
2018-02-10T10:09:26.633Z,1.00
2018-02-10T10:11:53.062Z,0.90
2018-02-10T10:44:19.137Z,1.50
2018-02-10T10:46:45.872Z,1.90
2018-02-10T10:49:13.196Z,2.00
2018-02-10T10:51:39.977Z,2.10
2018-02-10T10:54:06.961Z,2.50
2018-02-10T10:56:33.419Z,2.40
2018-02-10T10:59:00.233Z,2.70
2018-02-10T11:01:27.001Z,2.50
2018-02-10T11:03:53.740Z,2.30
2018-02-10T11:06:20.202Z,2.30
2018-02-10T11:08:47.041Z,2.30
2018-02-10T11:11:13.469Z,2.30
2018-02-10T11:13:40.790Z,2.30
2018-02-10T11:16:07.711Z,2.50
2018-02-10T11:18:34.097Z,2.30
2018-02-10T11:21:00.510Z,2.40
2018-02-10T11:23:27.735Z,2.60
2018-02-10T11:25:54.317Z,3.00
2018-02-10T11:28:21.129Z,3.10
2018-02-10T11:30:48.046Z,3.40
2018-02-10T11:33:14.536Z,3.20
2018-02-10T11:35:41.967Z,3.10
2018-02-10T11:38:08.253Z,3.00
2018-02-10T11:40:34.658Z,3.20
2018-02-10T11:43:01.012Z,3.40
2018-02-10T11:47:55.522Z,4.60
2018-02-10T11:52:50.634Z,6.10
2018-02-10T11:55:17.813Z,6.60
2018-02-10T11:57:45.021Z,7.30
2018-02-10T12:00:12.564Z,7.50
2018-02-10T12:02:39.960Z,6.70
2018-02-10T12:07:35.459Z,6.50
2018-02-10T12:10:02.712Z,7.10
2018-02-10T12:12:30.576Z,7.60
2018-02-10T12:14:57.700Z,7.70
2018-02-10T12:17:24.133Z,7.00
2018-02-10T12:19:51.963Z,6.90
2018-02-10T12:22:18.329Z,7.10
2018-02-10T12:24:44.676Z,6.80
2018-02-10T12:27:11.115Z,6.40
2018-02-10T12:29:38.621Z,7.10
2018-02-10T12:32:04.990Z,7.50
2018-02-10T12:34:31.521Z,7.90
2018-02-10T12:36:58.342Z,7.20
2018-02-10T12:39:25.484Z,6.80
2018-02-10T12:41:52.357Z,6.80
2018-02-10T12:44:20.428Z,7.30
2018-02-10T12:46:47.626Z,7.60
2018-02-10T12:49:31.700Z,7.40
2018-02-10T12:51:58.015Z,6.90
2018-02-10T12:57:20.685Z,7.10
2018-02-10T12:59:47.733Z,6.70
2018-02-10T13:02:14.143Z,6.60
2018-02-10T13:04:40.635Z,5.90
2018-02-10T13:07:07.702Z,5.70
2018-02-10T13:09:34.800Z,6.30
2018-02-10T13:12:03.242Z,6.40
2018-02-10T13:14:30.149Z,6.70
2018-02-10T13:16:58.869Z,5.90
2018-02-10T13:19:27.062Z,5.90
2018-02-10T13:21:53.486Z,6.20
2018-02-10T13:24:20.399Z,5.90
2018-02-10T13:26:48.094Z,5.80
2018-02-10T13:29:15.476Z,6.30
2018-02-10T13:34:32.763Z,5.20
2018-02-10T13:37:01.004Z,5.20
2018-02-10T13:39:27.464Z,5.80
2018-02-10T13:41:54.018Z,6.70
2018-02-10T13:44:22.000Z,7.40
2018-02-10T13:46:48.856Z,6.40
2018-02-10T13:49:16.542Z,6.60
2018-02-10T13:51:43.218Z,6.20
2018-02-10T13:54:10.888Z,6.00
2018-02-10T13:56:40.310Z,6.20
2018-02-10T13:59:06.866Z,7.00
2018-02-10T14:01:33.859Z,7.10
2018-02-10T14:04:01.385Z,7.00
2018-02-10T14:06:28.044Z,6.70
2018-02-10T14:08:55.276Z,6.20
2018-02-10T14:11:22.166Z,5.50
2018-02-10T14:13:50.391Z,5.70
2018-02-10T14:16:17.286Z,5.80
2018-02-10T14:18:44.668Z,5.90
2018-02-10T14:21:12.051Z,4.90
2018-02-10T14:23:38.853Z,4.20
2018-02-10T14:26:05.437Z,3.70
2018-02-10T14:28:32.345Z,3.70
2018-02-10T14:30:59.014Z,4.30
2018-02-10T14:33:26.961Z,3.90
2018-02-10T14:35:55.475Z,4.10
2018-02-10T14:38:32.963Z,4.30
2018-02-10T14:41:01.217Z,4.20
2018-02-10T14:43:28.026Z,4.00
2018-02-10T14:45:55.713Z,4.40
2018-02-10T14:48:22.402Z,4.40
2018-02-10T14:50:49.189Z,4.50
2018-02-10T14:53:16.506Z,4.80
2018-02-10T14:55:43.891Z,4.80
2018-02-10T14:58:10.342Z,4.80
2018-02-10T15:00:37.216Z,4.50
2018-02-10T15:03:04.644Z,4.10
2018-02-10T15:05:31.424Z,4.30
2018-02-10T15:07:58.190Z,4.30
2018-02-10T15:10:24.965Z,4.30
2018-02-10T15:12:51.562Z,4.30
2018-02-10T15:15:18.590Z,4.40
2018-02-10T15:20:13.235Z,4.10
2018-02-10T15:22:39.724Z,3.90
2018-02-10T15:25:06.698Z,3.60
2018-02-10T15:27:34.034Z,3.20
2018-02-10T15:30:12.813Z,2.90
2018-02-10T15:32:52.654Z,2.60
2018-02-10T15:35:19.683Z,2.20
2018-02-10T15:37:46.225Z,2.10
2018-02-10T15:40:13.887Z,1.90
2018-02-10T15:42:41.902Z,1.70
2018-02-10T15:45:08.335Z,1.60
2018-02-10T15:47:35.356Z,1.30
2018-02-10T15:52:31.789Z,1.00
2018-02-10T15:54:58.283Z,0.40
2018-02-10T15:57:24.885Z,0.40
2018-02-10T15:59:51.487Z,0.40
2018-02-10T16:02:19.407Z,0.10
2018-02-10T16:04:46.047Z,0.10
2018-02-10T16:07:12.971Z,0.00
2018-02-10T16:09:40.372Z,-0.20
2018-02-10T16:12:07.133Z,-0.20
2018-02-10T16:14:33.810Z,-0.40
2018-02-10T16:17:00.730Z,-0.50
2018-02-10T16:21:55.474Z,-0.70
2018-02-10T16:24:22.729Z,-0.60
2018-02-10T16:26:49.380Z,-0.70
2018-02-10T16:31:45.222Z,-0.90
2018-02-10T16:34:12.105Z,-0.90
2018-02-10T16:36:39.385Z,-1.10
2018-02-10T16:39:06.716Z,-1.10
2018-02-10T16:41:33.409Z,-1.20
2018-02-10T16:44:00.397Z,-1.30
2018-02-10T16:46:27.845Z,-1.30
2018-02-10T16:48:54.877Z,-1.30
2018-02-10T16:51:22.519Z,-1.30
2018-02-10T16:53:50.422Z,-1.50
2018-02-10T16:56:17.081Z,-1.20
2018-02-10T16:58:43.592Z,-1.30
2018-02-10T17:01:11.605Z,-1.30
2018-02-10T17:03:38.385Z,-1.30
2018-02-10T17:06:05.622Z,-1.40
2018-02-10T17:08:32.943Z,-1.40
2018-02-10T17:10:59.822Z,-1.40
2018-02-10T17:13:27.104Z,-1.40
2018-02-10T17:21:10.606Z,-1.10
2018-02-10T17:23:38.042Z,-1.30
2018-02-10T17:26:05.299Z,-1.20
2018-02-10T17:33:29.656Z,-1.20
2018-02-10T17:35:56.284Z,-1.10
2018-02-10T17:38:24.129Z,-1.30
2018-02-10T17:40:51.330Z,-1.20
2018-02-10T17:43:17.962Z,-1.30
2018-02-10T17:45:44.926Z,-1.20
2018-02-10T17:48:11.965Z,-1.50
2018-02-10T17:50:39.005Z,-1.70
2018-02-10T17:55:35.862Z,-1.80
2018-02-10T17:58:04.476Z,-1.80
2018-02-10T18:03:06.600Z,-2.00
2018-02-10T18:05:34.056Z,-2.00
2018-02-10T18:08:00.757Z,-1.90
2018-02-10T18:10:27.344Z,-2.00
2018-02-10T18:12:54.660Z,-1.90
2018-02-10T18:15:24.023Z,-2.10
2018-02-10T18:17:51.328Z,-2.10
2018-02-10T18:20:17.774Z,-1.90
2018-02-10T18:22:45.397Z,-2.20
2018-02-10T18:25:12.699Z,-2.20
2018-02-10T18:27:39.089Z,-2.20
2018-02-10T18:30:06.408Z,-2.30
2018-02-10T18:32:33.678Z,-2.30
2018-02-10T18:35:00.493Z,-2.30
2018-02-10T18:37:28.166Z,-2.40
2018-02-10T18:39:55.463Z,-2.40
2018-02-10T18:42:24.702Z,-2.50
2018-02-10T18:44:51.300Z,-2.20
2018-02-10T18:47:17.768Z,-2.50
2018-02-10T18:49:44.522Z,-2.60
2018-02-10T18:52:12.946Z,-2.60
2018-02-10T18:54:39.525Z,-2.60
2018-02-10T18:57:07.445Z,-2.60
2018-02-10T18:59:34.250Z,-2.70
2018-02-10T19:02:00.827Z,-2.60
2018-02-10T19:04:28.185Z,-2.60
2018-02-10T19:06:55.021Z,-2.80
2018-02-10T19:09:23.084Z,-2.60
2018-02-10T19:11:50.817Z,-2.60
2018-02-10T19:14:17.571Z,-2.60
2018-02-10T19:16:45.642Z,-2.60
2018-02-10T19:21:40.845Z,-2.60
2018-02-10T19:24:07.521Z,-2.70
2018-02-10T19:26:34.357Z,-2.50
2018-02-10T19:29:00.898Z,-2.50
2018-02-10T19:31:27.529Z,-2.50
2018-02-10T19:33:54.509Z,-2.40
2018-02-10T19:36:21.537Z,-2.40
2018-02-10T19:38:48.524Z,-2.30
2018-02-10T19:41:15.086Z,-2.10
2018-02-10T19:43:41.746Z,-2.10
2018-02-10T19:46:08.282Z,-2.40
2018-02-10T19:48:35.086Z,-2.60
2018-02-10T19:51:06.541Z,-2.40
2018-02-10T19:53:34.017Z,-2.70
2018-02-10T19:56:01.591Z,-2.40
2018-02-10T19:58:30.350Z,-2.40
2018-02-10T20:00:58.808Z,-2.20
2018-02-10T20:03:26.007Z,-2.00
2018-02-10T20:05:52.539Z,-1.80
2018-02-10T20:08:19.017Z,-1.60
2018-02-10T20:10:45.837Z,-1.50
2018-02-10T20:13:14.184Z,-1.20
2018-02-10T20:18:10.527Z,-1.40
2018-02-10T20:20:37.180Z,-1.10
2018-02-10T20:23:03.733Z,-1.40
2018-02-10T20:25:30.640Z,-1.30
2018-02-10T20:27:58.114Z,-1.10
2018-02-10T20:30:25.088Z,-1.30
2018-02-10T20:32:53.212Z,-1.20
2018-02-10T20:35:21.298Z,-1.10
2018-02-10T20:37:49.598Z,-1.10
2018-02-10T20:40:16.208Z,-1.00
2018-02-10T20:42:43.157Z,-1.00
2018-02-10T20:45:10.526Z,-1.00
2018-02-10T20:47:37.552Z,-1.10
2018-02-10T20:50:04.597Z,-0.90
2018-02-10T20:52:32.626Z,-0.80
2018-02-10T20:54:59.174Z,-0.90
2018-02-10T20:57:29.026Z,-1.00
2018-02-10T20:59:55.534Z,-0.90
2018-02-10T21:02:22.224Z,-0.80
2018-02-10T21:04:49.718Z,-0.80
2018-02-10T21:07:16.214Z,-0.80
2018-02-10T21:09:42.836Z,-0.70
2018-02-10T21:12:10.212Z,-0.70
2018-02-10T21:14:36.802Z,-0.50
2018-02-10T21:17:04.354Z,-0.60
2018-02-10T21:19:31.272Z,-0.60
2018-02-10T21:21:57.813Z,-0.50
2018-02-10T21:24:24.468Z,-0.60
2018-02-10T21:26:53.679Z,-0.60
2018-02-10T21:29:21.414Z,-0.60
2018-02-10T21:31:48.695Z,-0.60
2018-02-10T21:34:15.508Z,-0.60
2018-02-10T21:36:42.113Z,-0.60
2018-02-10T21:39:08.607Z,-0.30
2018-02-10T21:41:36.105Z,-0.60
2018-02-10T21:44:02.598Z,-0.60
2018-02-10T21:46:30.631Z,0.00
2018-02-10T21:48:58.059Z,-0.40
2018-02-10T21:51:25.684Z,-0.50
2018-02-10T21:53:54.632Z,-0.30
2018-02-10T21:56:21.340Z,-0.10
2018-02-10T21:58:48.229Z,-0.30
2018-02-10T22:01:15.483Z,-0.40
2018-02-10T22:03:42.219Z,-0.30
2018-02-10T22:06:08.739Z,-0.30
2018-02-10T22:08:35.222Z,-0.30
2018-02-10T22:11:02.065Z,-0.30
2018-02-10T22:13:28.683Z,-0.40
2018-02-10T22:15:55.230Z,-0.40
2018-02-10T22:18:22.337Z,-0.40
2018-02-10T22:20:48.888Z,-0.10
2018-02-10T22:23:15.499Z,-0.20
2018-02-10T22:28:11.011Z,-0.30
2018-02-10T22:30:38.266Z,-0.30
2018-02-10T22:33:05.105Z,-0.30
2018-02-10T22:35:31.727Z,-0.40
2018-02-10T22:37:58.980Z,-0.30
2018-02-10T22:40:27.262Z,-0.30
2018-02-10T22:42:53.745Z,-0.30
2018-02-10T22:45:20.940Z,-0.30
2018-02-10T22:47:48.633Z,-0.40
2018-02-10T22:50:15.163Z,-0.30
2018-02-10T22:52:50.702Z,-0.20
2018-02-10T22:55:19.780Z,-0.30
2018-02-10T22:57:47.184Z,-0.40
2018-02-10T23:00:14.079Z,-0.30
2018-02-10T23:02:41.285Z,-0.30
2018-02-10T23:05:20.453Z,-0.20
2018-02-10T23:07:51.938Z,-0.20
2018-02-10T23:10:19.334Z,-0.20
2018-02-10T23:12:45.772Z,0.00
2018-02-10T23:15:12.226Z,0.00
2018-02-10T23:17:38.743Z,0.00
2018-02-10T23:20:08.512Z,0.00
2018-02-10T23:25:15.794Z,0.40
2018-02-10T23:27:43.086Z,0.10
2018-02-10T23:30:10.623Z,0.10
2018-02-10T23:32:37.501Z,-0.10
2018-02-10T23:35:04.177Z,0.10
2018-02-10T23:37:30.997Z,0.20
2018-02-10T23:39:58.358Z,0.10
2018-02-10T23:42:25.964Z,0.20
2018-02-10T23:44:52.437Z,0.20
2018-02-10T23:47:18.908Z,0.20
2018-02-10T23:49:45.745Z,0.20
2018-02-10T23:52:12.232Z,0.40
2018-02-10T23:54:38.657Z,0.20
2018-02-10T23:57:05.311Z,0.30
2018-02-10T23:59:31.804Z,0.30
